Tiempo atmosférico en la estación meteorológica de Berga, Barcelona (690 m.)



Fecha
DESCASC
Temp. máxima en grados centígrados (hora)
DESCASC
Temp. mínima en grados centígrados (hora)
DESCASC
Temp. media en grados centígrados
DESCASC
Racha de viento máxima en m/sg (hora)
DESCASC
Velocidad máxima media en intervalos de 10 minutos(hora)
DESCASC
Precipitaciones diarias en mm
DESCASC
Precipitaciones de 00:00 a 06:00 en mm
DESCASC
Precipitaciones de 06:00 a 12:00 en mm
DESCASC
Precipitaciones de 12:00 a 18:00 en mm
DESCASC
Precipitaciones de 18:00 a 24:00 en mm
DESCASC
31-05-2020 23 (15:40) 13.6 (23:59) 18.3 6.67 (21:00) 4.44 (20:50) 9.8 0 0 0 9.8
30-05-2020 20.9 (16:00) 11.8 (06:30) 16.3 9.17 (19:40) 5 (19:50) 24.6 0 0 0 24.6
29-05-2020 26 (14:00) 12.8 (06:20) 19.4 6.39 (17:40) 3.61 (14:20) 10.2 0 0 8 2.2
28-05-2020 25.4 (16:20) 12.9 (00:00) 19.1 8.06 (15:20) 5 (17:20) 0 0 0 0 0
27-05-2020 26.8 (15:30) 13.3 (00:00) 20 8.61 (16:30) 5.28 (16:30) 4.6 0 0 2.2 2.4
26-05-2020 26.5 (18:30) 12.9 (00:00) 19.7 7.78 (13:00) 4.72 (12:40) 0 0 0 0 0
25-05-2020 22.6 (18:30) 16 (00:00) 19.3 3.33 (12:40) 1.94 (18:50) 0 0 0 0 0
24-05-2020 24.3 (15:20) 16.1 (00:00) 20.2 6.11 (12:40) 4.17 (12:40) 0 0 0 0 0
23-05-2020 27.8 (15:10) 13.9 (00:00) 20.8 8.89 (15:50) 5.56 (16:10) 0 0 0 0 0
22-05-2020 29.5 (15:20) 15.5 (00:00) 22.5 7.5 (17:30) 4.72 (17:40) 0 0 0 0 0
21-05-2020 28.4 (16:10) 14 (00:00) 21.2 7.22 (18:20) 4.72 (18:30) 0 0 0 0 0
20-05-2020 27.4 (16:10) 12.1 (00:00) 19.8 8.89 (00:20) 5.28 (02:20) 0 0 0 0 0
19-05-2020 26.1 (15:30) 12.7 (00:00) 19.4 8.61 (16:40) 5 (17:20) 0 0 0 0 0
18-05-2020 24.7 (16:10) 10.3 (00:00) 17.5 7.78 (03:50) 4.44 (03:50) 0 0 0 0 0
17-05-2020 20.8 (16:40) 7.8 (00:00) 14.3 8.33 (14:40) 4.72 (14:00) 0 0 0 0 0
16-05-2020 18.9 (11:30) 10.2 (00:00) 14.5 8.61 (01:00) 5 (00:40) 3.4 0 0 3 0.4
15-05-2020 18 (14:10) 9.3 (00:00) 13.7 8.89 (23:20) 5.56 (22:50) 9.4 0 0.2 0 9.2
14-05-2020 17.7 (11:00) 9.9 (00:00) 13.8 4.72 (14:50) 2.5 (11:30) 15.8 0 0 14.2 1.6
13-05-2020 20.1 (14:50) 11.4 (00:00) 15.8 11.67 (12:40) 7.78 (13:50) 2.6 1.4 1.2 0 0
12-05-2020 19.4 (14:50) 8.5 (00:00) 13.9 8.33 (15:10) 4.72 (15:20) 0 0 0 0 0
11-05-2020 18.5 (17:20) 9.9 (00:00) 14.2 13.06 (15:10) 7.5 (13:20) 0.2 0.2 0 0 0
10-05-2020 15.9 (00:00) 10.7 (00:00) 13.3 10.83 (15:30) 5.28 (15:30) 43.8 0 31 10.4 2.4
09-05-2020 21.3 (17:00) 11.4 (00:00) 16.3 8.06 (06:00) 3.89 (17:00) 0 0 0 0 0
08-05-2020 24 (16:40) 13.3 (00:00) 18.7 8.61 (18:20) 5 (18:10) 0 0 0 0 0
07-05-2020 25.2 (15:40) 14 (00:00) 19.6 7.22 (15:40) 3.61 (15:00) 0 0 0 0 0
06-05-2020 25.5 (16:50) 12.9 (00:00) 19.2 10.83 (15:10) 6.67 (15:10) 0 0 0 0 0
05-05-2020 24.2 (14:10) 12.8 (00:00) 18.5 5.56 (14:20) 3.06 (07:30) 0 0 0 0 0

Gráficas

Temp. máximas Temp. mínimas Temp. medias Precipitaciones Rachas de viento máximas Velocidades máximas media en intervalos de 10 minutos

Datos horarios

Fecha y hora oficial Temperatura (ºC) Velocidad del viento (km/h) Dirección del viento Racha (km/h) Dirección de racha Precipitación (mm) Presión (hPa) Tendencia (hPa) Humedad (%)
2020-06-03 23:00:00 14.7 3 Este 8 Sudoeste 0 -- -- 95
2020-06-03 22:00:00 14.8 3 Este 8 Este 0.6 -- -- 95
2020-06-03 21:00:00 15 3 Este 40 Sudoeste 13.6 -- -- 94
2020-06-03 20:00:00 17.7 10 Oeste 28 Sudoeste 0.6 -- -- 87
2020-06-03 19:00:00 18.7 5 Sudoeste 12 Sur 0 -- -- 83
2020-06-03 18:00:00 19.4 4 Este 15 Nordeste 0 -- -- 79
2020-06-03 17:00:00 20 9 Nordeste 18 Este 0.2 -- -- 81
2020-06-03 16:00:00 20.4 5 Este 9 Este 6.2 -- -- 86
2020-06-03 15:00:00 21.7 3 Sudeste 15 Norte 0 -- -- 73
2020-06-03 14:00:00 21.2 6 Este 10 Este 0 -- -- 75
2020-06-03 13:00:00 20.3 4 Este 12 Sudeste 0.4 -- -- 82
2020-06-03 12:00:00 20.2 7 Sudoeste 20 Sudoeste 0 -- -- 76
2020-06-03 11:00:00 20.5 5 Sudoeste 13 Sudoeste 0.2 -- -- 74
2020-06-03 10:00:00 18.5 2 Este 5 Este 0 -- -- 82
2020-06-03 09:00:00 16.7 0 Calma 9 Este 0 -- -- 89
2020-06-03 08:00:00 15.4 6 Este 12 Este 0 -- -- 91
2020-06-03 07:00:00 14.5 6 Este 12 Este 0 -- -- 93
2020-06-03 06:00:00 14.3 7 Este 13 Nordeste 0 -- -- 93
2020-06-03 05:00:00 14.6 7 Este 12 Este 0 -- -- 92
2020-06-03 04:00:00 15.3 4 Nordeste 17 Este 0 -- -- 91
2020-06-03 03:00:00 15.5 9 Nordeste 15 Nordeste 0 -- -- 93
2020-06-03 02:00:00 15.7 5 Este 9 Nordeste 0 -- -- 93
2020-06-03 01:00:00 16.5 9 Nordeste 15 Nordeste 0 -- -- 90
2020-06-03 00:00:00 16.5 4 Este 8 Este 0 -- -- 92
2020-06-02 23:00:00 16.6 3 Este 7 Nordeste 0 -- -- 92
2020-06-02 22:00:00 17 4 Este 8 Nordeste 0 -- -- 90
2020-06-02 21:00:00 16.8 4 Este 10 Este 0 -- -- 91
2020-06-02 20:00:00 17.2 3 Oeste 15 Sudoeste 0 -- -- 88
2020-06-02 19:00:00 18.9 6 Sudoeste 14 Nordeste 0.2 -- -- 86
2020-06-02 18:00:00 20.3 5 Nordeste 12 Este 0.6 -- -- 84
2020-06-02 17:00:00 21.8 5 Este 13 Este 0.6 -- -- 70
2020-06-02 16:00:00 22.7 6 Sudoeste 17 Sur 0 -- -- 57
2020-06-02 15:00:00 22.3 6 Sudoeste 21 Oeste 0 -- -- 60
2020-06-02 14:00:00 22.9 11 Sudoeste 23 Oeste 0 -- -- 63
2020-06-02 13:00:00 21.7 10 Oeste 19 Sudoeste 0 -- -- 68
2020-06-02 12:00:00 20.6 6 Oeste 13 Sudoeste 0 -- -- 75
2020-06-02 11:00:00 19.1 4 Sudoeste 13 Oeste 0 -- -- 74
2020-06-02 10:00:00 16.8 7 Sudoeste 10 Sudoeste 0 -- -- 85
2020-06-02 09:00:00 14.6 4 Este 12 Este 0 -- -- 91
2020-06-02 08:00:00 12.8 5 Nordeste 17 Nordeste 0 -- -- 95
2020-06-02 07:00:00 11.9 5 Este 14 Nordeste 0 -- -- 96
2020-06-02 06:00:00 11.8 5 Este 9 Nordeste 0 -- -- 95
2020-06-02 05:00:00 11.9 3 Este 11 Este 0 -- -- 95
2020-06-02 04:00:00 12.1 7 Nordeste 14 Este 0 -- -- 95
2020-06-02 03:00:00 12.2 8 Este 13 Nordeste 0 -- -- 94
2020-06-02 02:00:00 13 5 Este 14 Este 0 -- -- 94
2020-06-02 01:00:00 13 4 Este 10 Nordeste 0 -- -- 95
2020-06-02 00:00:00 13.6 3 Nordeste 11 Nordeste 0 -- -- 94
2020-06-01 23:00:00 14.1 4 Este 8 Este 0.2 -- -- 93
2020-06-01 22:00:00 14.3 3 Sudoeste 20 Nordeste 3.2 -- -- 92
2020-06-01 21:00:00 14.6 13 Nordeste 34 Nordeste 5.4 -- -- 88
2020-06-01 20:00:00 14.7 5 Nordeste 26 Nordeste 2.8 -- -- 90
2020-06-01 19:00:00 15.4 7 Nordeste 27 Sudeste 12.4 -- -- 90
2020-06-01 18:00:00 19.6 10 Sudeste 29 Este 0 -- -- 73
2020-06-01 17:00:00 20.5 6 Nordeste 14 Este 0 -- -- 71
2020-06-01 16:00:00 19.7 4 Nordeste 14 Sudoeste 0 -- -- 73
2020-06-01 15:00:00 19.1 11 Sudoeste 24 Sudoeste 0 -- -- 76
2020-06-01 14:00:00 20.8 10 Sudoeste 21 Sudoeste 0 -- -- 73
2020-06-01 13:00:00 19.8 10 Sudoeste 22 Sudoeste 0 -- -- 72
2020-06-01 12:00:00 19 6 Sur 17 Sudoeste 0 -- -- 78
2020-06-01 11:00:00 18.2 9 Oeste 14 Sudoeste 0 -- -- 81
2020-06-01 10:00:00 16.8 3 Nordeste 7 Oeste 0 -- -- 83
2020-06-01 09:00:00 14.6 4 Sudoeste 15 Este 0 -- -- 93
2020-06-01 08:00:00 12.9 5 Nordeste 9 Nordeste 0 -- -- 95
2020-06-01 07:00:00 12.3 5 Este 14 Nordeste 0 -- -- 96
2020-06-01 06:00:00 12 6 Este 10 Este 0 -- -- 96
2020-06-01 05:00:00 12.8 4 Sudoeste 10 Sudoeste 0 -- -- 94
2020-06-01 04:00:00 13.5 5 Sudoeste 9 Sudoeste 0 -- -- 93
2020-06-01 03:00:00 13.8 3 Este 9 Este 0 -- -- 93
2020-06-01 02:00:00 13.7 9 Este 19 Este 0.2 -- -- 93
2020-06-01 01:00:00 13.9 0 Calma 18 Este 0.2 -- -- 92
2020-06-01 00:00:00 13.6 6 Este 18 Este 6.8 -- -- 91
2020-05-31 23:00:00 15.3 15 Sudoeste 23 Sudoeste 3 -- -- 82
2020-05-31 22:00:00 17 10 Oeste 16 Sudoeste 0 -- -- 65
2020-05-31 21:00:00 17.7 15 Oeste 24 Oeste 0 -- -- 68
2020-05-31 20:00:00 18.8 11 Oeste 22 Sudoeste 0 -- -- 73
2020-05-31 19:00:00 20.2 11 Sudoeste 20 Sudoeste 0 -- -- 71
2020-05-31 18:00:00 21.8 10 Sudoeste 17 Sudoeste 0 -- -- 65
2020-05-31 17:00:00 22.5 8 Sudoeste 18 Sudoeste 0 -- -- 62
2020-05-31 16:00:00 22.9 6 Sudoeste 18 Sudoeste 0 -- -- 62
2020-05-31 15:00:00 22.6 6 Oeste 17 Noroeste 0 -- -- 65
2020-05-31 14:00:00 20.4 4 Oeste 10 Oeste 0 -- -- 70
2020-05-31 13:00:00 18.8 6 Oeste 12 Oeste 0 -- -- 74
2020-05-31 12:00:00 18.7 5 Sudoeste 18 Sudoeste 0 -- -- 72
2020-05-31 11:00:00 18.9 8 Sudoeste 14 Sudoeste 0 -- -- 77
2020-05-31 10:00:00 17.2 5 Sudoeste 12 Sudoeste 0 -- -- 84
2020-05-31 09:00:00 15.1 3 Sur 11 Sudoeste 0 -- -- 94
2020-05-31 08:00:00 14.3 3 Sur 9 Nordeste 0 -- -- 95
2020-05-31 07:00:00 14 2 Oeste 5 Sur 0 -- -- 96
2020-05-31 06:00:00 14 4 Sur 8 Sur 0 -- -- 95
2020-05-31 05:00:00 14.4 5 Sudoeste 8 Sudoeste 0 -- -- 94
2020-05-31 04:00:00 14.6 4 Sudoeste 6 Sudoeste 0 -- -- 94
2020-05-31 03:00:00 14.5 0 Calma 8 Este 0 -- -- 94
2020-05-31 02:00:00 14.5 4 Este 7 Sudoeste 0 -- -- 94
2020-05-31 01:00:00 14.8 2 Sudeste 6 Sudoeste 0 -- -- 95
2020-05-31 00:00:00 14.9 3 Sudoeste 6 Sudoeste 0 -- -- 95
2020-05-30 23:00:00 15 4 Sudoeste 12 Oeste 0 -- -- 94
2020-05-30 22:00:00 15.4 4 Oeste 9 Oeste 0 -- -- 96
2020-05-30 21:00:00 15.4 4 Sudoeste 8 Oeste 0 -- -- 95
2020-05-30 20:00:00 15.2 7 Sur 33 Este 24.6 -- -- 92
2020-05-30 19:00:00 18.6 3 Oeste 12 Este 0 -- -- 78
2020-05-30 18:00:00 20.2 5 Sudoeste 10 Oeste 0 -- -- 70
2020-05-30 17:00:00 20.5 3 Sudeste 14 Sudoeste 0 -- -- 64
2020-05-30 16:00:00 20.9 4 Oeste 16 Noroeste 0 -- -- 63
2020-05-30 15:00:00 20.7 6 Sudoeste 13 Oeste 0 -- -- 64
2020-05-30 14:00:00 19.5 7 Sudoeste 13 Sudoeste 0 -- -- 68
2020-05-30 13:00:00 17.7 3 Este 7 Sudeste 0 -- -- 79
2020-05-30 12:00:00 17 4 Nordeste 10 Sudoeste 0 -- -- 80
2020-05-30 11:00:00 16.1 4 Sudoeste 12 Sudoeste 0 -- -- 82
2020-05-30 10:00:00 15.8 6 Sudoeste 16 Sudoeste 0 -- -- 85
2020-05-30 09:00:00 14.6 4 Sudoeste 10 Este 0 -- -- 89
2020-05-30 08:00:00 12.9 4 Este 9 Sudeste 0 -- -- 91
2020-05-30 07:00:00 12 5 Este 9 Este 0 -- -- 93
2020-05-30 06:00:00 12.1 4 Este 9 Este 0 -- -- 92
2020-05-30 05:00:00 12.3 4 Este 8 Este 0 -- -- 91
2020-05-30 04:00:00 12.9 5 Este 15 Este 0 -- -- 89
2020-05-30 03:00:00 13.3 7 Este 16 Nordeste 0 -- -- 89
2020-05-30 02:00:00 14.1 8 Nordeste 18 Nordeste 0 -- -- 87
2020-05-30 01:00:00 14.6 4 Norte 10 Nordeste 0 -- -- 86
2020-05-30 00:00:00 14.5 5 Norte 11 Este 0 -- -- 90
2020-05-29 23:00:00 14.8 3 Noroeste 12 Sudeste 0 -- -- 91
2020-05-29 22:00:00 15.4 6 Este 17 Este 0 -- -- 91
2020-05-29 21:00:00 16.2 3 Este 8 Sur 0.2 -- -- 88
2020-05-29 20:00:00 16.3 2 Este 9 Nordeste 0.4 -- -- 89
2020-05-29 19:00:00 16.1 4 Este 17 Nordeste 1.6 -- -- 89
2020-05-29 18:00:00 16.3 8 Nordeste 23 Este 4 -- -- 83
2020-05-29 17:00:00 20.6 3 Noroeste 10 Este 2.6 -- -- 78
2020-05-29 16:00:00 23.5 3 Sur 7 Noroeste 1 -- -- 62
2020-05-29 15:00:00 22.3 5 Oeste 20 Sudoeste 0.4 -- -- 69
2020-05-29 14:00:00 26 9 Oeste 19 Oeste 0 -- -- 44
2020-05-29 13:00:00 25.2 7 Sudoeste 17 Sudoeste 0 -- -- 50
2020-05-29 12:00:00 24 5 Sudoeste 14 Oeste 0 -- -- 49
2020-05-29 11:00:00 22.5 8 Oeste 14 Sudoeste 0 -- -- 56
2020-05-29 10:00:00 20.3 4 Sudoeste 8 Oeste 0 -- -- 66
2020-05-29 09:00:00 16.5 5 Este 11 Este 0 -- -- 75
2020-05-29 08:00:00 14.5 6 Este 17 Este 0 -- -- 79
2020-05-29 07:00:00 13 8 Este 17 Este 0 -- -- 84
2020-05-29 06:00:00 12.9 7 Este 13 Este 0 -- -- 84
2020-05-29 05:00:00 13.3 6 Este 12 Nordeste 0 -- -- 83
2020-05-29 04:00:00 13.7 7 Este 12 Este 0 -- -- 81
2020-05-29 03:00:00 14.1 6 Este 13 Nordeste 0 -- -- 80
2020-05-29 02:00:00 14 7 Este 13 Este 0 -- -- 78
2020-05-29 01:00:00 14.5 6 Este 9 Este 0 -- -- 74
2020-05-29 00:00:00 16 4 Este 6 Este 0 -- -- 65
2020-05-28 23:00:00 17.1 3 Este 6 Oeste 0 -- -- 60
2020-05-28 22:00:00 18.3 3 Sudoeste 8 Sudoeste 0 -- -- 57
2020-05-28 21:00:00 19.5 6 Sudoeste 13 Sudoeste 0 -- -- 54
2020-05-28 20:00:00 20.6 7 Oeste 16 Sudoeste 0 -- -- 55
2020-05-28 19:00:00 22.4 8 Sudoeste 22 Sudoeste 0 -- -- 50
2020-05-28 18:00:00 22.9 15 Sudoeste 28 Sudoeste 0 -- -- 54
2020-05-28 17:00:00 24.4 13 Sudoeste 27 Sudoeste 0 -- -- 52
2020-05-28 16:00:00 25.2 10 Sudoeste 29 Sudoeste 0 -- -- 43
2020-05-28 15:00:00 24.9 12 Sudoeste 25 Sudoeste 0 -- -- 44
2020-05-28 14:00:00 24.2 10 Sudoeste 25 Sudoeste 0 -- -- 45
2020-05-28 13:00:00 23.1 10 Sur 22 Sudoeste 0 -- -- 49
2020-05-28 12:00:00 22 6 Sudoeste 15 Sudoeste 0 -- -- 60
2020-05-28 11:00:00 20.4 6 Sudoeste 12 Sudoeste 0 -- -- 66
2020-05-28 10:00:00 18.4 4 Este 9 Este 0 -- -- 74
2020-05-28 09:00:00 15.6 3 Este 12 Nordeste 0 -- -- 86
2020-05-28 08:00:00 13.9 6 Este 13 Este 0 -- -- 91
2020-05-28 07:00:00 12.9 6 Este 14 Este 0 -- -- 93
2020-05-28 06:00:00 13 6 Este 14 Sudeste 0 -- -- 93
2020-05-28 05:00:00 13.5 5 Este 10 Este 0 -- -- 93
2020-05-28 04:00:00 14.1 4 Este 9 Este 0 -- -- 93
2020-05-28 03:00:00 15 4 Este 7 Este 0 -- -- 92
2020-05-28 02:00:00 15.8 3 Este 8 Este 0 -- -- 90
2020-05-28 01:00:00 15.9 4 Este 8 Este 0 -- -- 91
2020-05-28 00:00:00 16.3 4 Este 9 Este 0 -- -- 90
2020-05-27 23:00:00 16.7 3 Nordeste 9 Este 0 -- -- 87
2020-05-27 22:00:00 17.1 6 Este 10 Nordeste 0 -- -- 91
2020-05-27 21:00:00 17.5 5 Este 10 Nordeste 0 -- -- 90
2020-05-27 20:00:00 17.9 4 Este 12 Norte 0.6 -- -- 90
2020-05-27 19:00:00 17.9 5 Nordeste 16 Nordeste 1.8 -- -- 87
2020-05-27 18:00:00 19.6 12 Nordeste 24 Sudoeste 2.2 -- -- 74
2020-05-27 17:00:00 25.2 17 Sudoeste 31 Sudoeste 0 -- -- 50
2020-05-27 16:00:00 26.4 13 Oeste 26 Sudoeste 0 -- -- 41
2020-05-27 15:00:00 26.7 12 Sudoeste 25 Oeste 0 -- -- 41
2020-05-27 14:00:00 25.7 8 Sur 21 Sudoeste 0 -- -- 46
2020-05-27 13:00:00 24.7 13 Oeste 21 Oeste 0 -- -- 51
2020-05-27 12:00:00 24 8 Sudoeste 17 Sudoeste 0 -- -- 49
2020-05-27 11:00:00 22.9 7 Sudoeste 13 Sudoeste 0 -- -- 54
2020-05-27 10:00:00 20.3 5 Sudoeste 8 Sudoeste 0 -- -- 58
2020-05-27 09:00:00 16.5 5 Este 14 Este 0 -- -- 63
2020-05-27 08:00:00 14.6 8 Este 15 Este 0 -- -- 64
2020-05-27 07:00:00 13.3 8 Este 16 Este 0 -- -- 67
2020-05-27 06:00:00 13.5 8 Este 19 Nordeste 0 -- -- 68
2020-05-27 05:00:00 14.6 12 Nordeste 22 Nordeste 0 -- -- 66
2020-05-27 04:00:00 14.7 9 Este 17 Este 0 -- -- 70
2020-05-27 03:00:00 15.6 9 Nordeste 17 Nordeste 0 -- -- 73
2020-05-27 02:00:00 15.8 8 Este 17 Este 0 -- -- 77
2020-05-27 01:00:00 16.5 11 Nordeste 18 Nordeste 0 -- -- 74
2020-05-27 00:00:00 17.7 4 Este 6 Este 0 -- -- 67
2020-05-26 23:00:00 19 3 Nordeste 6 Sudoeste 0 -- -- 63
2020-05-26 22:00:00 20 5 Sudoeste 9 Sudoeste 0 -- -- 61
2020-05-26 21:00:00 21.3 5 Oeste 12 Sudoeste 0 -- -- 58
2020-05-26 20:00:00 23.3 6 Sudoeste 18 Sudeste 0 -- -- 53
2020-05-26 19:00:00 25.8 8 Sudoeste 19 Oeste 0 -- -- 48
2020-05-26 18:00:00 26.3 11 Sudoeste 22 Oeste 0 -- -- 48
2020-05-26 17:00:00 26.2 13 Sudoeste 19 Sudoeste 0 -- -- 48
2020-05-26 16:00:00 26.3 12 Oeste 24 Sudoeste 0 -- -- 49
2020-05-26 15:00:00 25.8 10 Sudoeste 23 Sudoeste 0 -- -- 50
2020-05-26 14:00:00 25.1 10 Sudoeste 26 Oeste 0 -- -- 51
2020-05-26 13:00:00 24.4 12 Sudoeste 28 Sur 0 -- -- 52
2020-05-26 12:00:00 23.5 13 Sudoeste 27 Sudoeste 0 -- -- 49
2020-05-26 11:00:00 22.6 4 Sur 13 Sudoeste 0 -- -- 59
2020-05-26 10:00:00 20.1 6 Sudoeste 10 Este 0 -- -- 64
2020-05-26 09:00:00 16.6 6 Este 14 Este 0 -- -- 71
2020-05-26 08:00:00 14.3 8 Este 16 Este 0 -- -- 77
2020-05-26 07:00:00 12.9 9 Este 17 Nordeste 0 -- -- 81
2020-05-26 06:00:00 13.1 8 Este 16 Nordeste 0 -- -- 81
2020-05-26 05:00:00 13.7 7 Este 19 Nordeste 0 -- -- 80
2020-05-26 04:00:00 13.8 7 Este 12 Este 0 -- -- 81
2020-05-26 03:00:00 14.8 7 Este 18 Este 0 -- -- 77
2020-05-26 02:00:00 15.2 8 Nordeste 16 Este 0 -- -- 78
2020-05-26 01:00:00 15.7 5 Este 8 Este 0 -- -- 77
2020-05-26 00:00:00 17.6 3 Sudoeste 6 Sur 0 -- -- 70
2020-05-25 23:00:00 18.4 5 Oeste 10 Sudoeste 0 -- -- 65
2020-05-25 22:00:00 20 4 Sur 9 Noroeste 0 -- -- 69
2020-05-25 21:00:00 20.7 3 Oeste 5 Sudoeste 0 -- -- 66
2020-05-25 20:00:00 21.6 3 Sudoeste 8 Sudoeste 0 -- -- 63
2020-05-25 19:00:00 22.3 5 Sudoeste 10 Sudoeste 0 -- -- 61
2020-05-25 18:00:00 22 5 Oeste 11 Oeste 0 -- -- 64
2020-05-25 17:00:00 22.3 4 Sudoeste 12 Oeste 0 -- -- 61
2020-05-25 16:00:00 21.3 3 Este 10 Este 0 -- -- 61
2020-05-25 15:00:00 20.9 3 Nordeste 9 Nordeste 0 -- -- 62
2020-05-25 14:00:00 19.8 4 Este 8 Este 0 -- -- 65
2020-05-25 13:00:00 19.6 4 Sudoeste 12 Oeste 0 -- -- 65
2020-05-25 12:00:00 18.8 4 Sudoeste 12 Sudoeste 0 -- -- 69
2020-05-25 11:00:00 18 4 Sudoeste 8 Sudoeste 0 -- -- 73
2020-05-25 10:00:00 17.7 2 Este 8 Sudoeste 0 -- -- 82
2020-05-25 09:00:00 16.7 4 Oeste 6 Oeste 0 -- -- 88
2020-05-25 08:00:00 16.2 4 Sudoeste 6 Este 0 -- -- 82
2020-05-25 07:00:00 16.1 4 Este 7 Este 0 -- -- 91
2020-05-25 06:00:00 16.4 4 Este 8 Este 0 -- -- 88
2020-05-25 05:00:00 16.4 3 Este 6 Nordeste 0 -- -- 89
2020-05-25 04:00:00 16.5 2 Este 8 Este 0 -- -- 89
2020-05-25 03:00:00 16.8 0 Calma 7 Sur 0 -- -- 89
2020-05-25 02:00:00 16.9 3 Sudoeste 4 Sudoeste 0 -- -- 87
2020-05-25 01:00:00 17 5 Este 7 Este 0 -- -- 86
2020-05-25 00:00:00 17.3 5 Sudoeste 9 Sur 0 -- -- 84
2020-05-24 23:00:00 17.8 4 Sudoeste 12 Sudoeste 0 -- -- 82
2020-05-24 22:00:00 18.4 8 Sudoeste 12 Sudoeste 0 -- -- 81
2020-05-24 21:00:00 19.4 4 Sudoeste 11 Sudoeste 0 -- -- 79
2020-05-24 20:00:00 19.9 5 Oeste 14 Sudoeste 0 -- -- 78
2020-05-24 19:00:00 20.8 7 Sudoeste 19 Oeste 0 -- -- 72
2020-05-24 18:00:00 21.8 12 Sudoeste 17 Sudoeste 0 -- -- 66
2020-05-24 17:00:00 21.7 8 Sudoeste 18 Sudoeste 0 -- -- 65
2020-05-24 16:00:00 23.1 10 Sudoeste 18 Sudoeste 0 -- -- 60
2020-05-24 15:00:00 22.7 4 Oeste 14 Sudoeste 0 -- -- 59
2020-05-24 14:00:00 20.6 9 Sudoeste 22 Sudoeste 0 -- -- 65
2020-05-24 13:00:00 22 12 Sudoeste 22 Sudoeste 0 -- -- 61
2020-05-24 12:00:00 21.2 7 Sudoeste 18 Sudoeste 0 -- -- 58
2020-05-24 11:00:00 19.1 4 Sur 16 Este 0 -- -- 66
2020-05-24 10:00:00 18.8 5 Este 15 Este 0 -- -- 67
2020-05-24 09:00:00 17.4 4 Nordeste 9 Nordeste 0 -- -- 75
2020-05-24 08:00:00 16.3 4 Este 8 Este 0 -- -- 79
2020-05-24 07:00:00 16.1 3 Nordeste 8 Este 0 -- -- 78
2020-05-24 06:00:00 16.4 4 Nordeste 14 Sur 0 -- -- 76
2020-05-24 05:00:00 17.5 9 Sudoeste 17 Sudoeste 0 -- -- 68
2020-05-24 04:00:00 17 10 Sudoeste 19 Sur 0 -- -- 73
2020-05-24 03:00:00 17.3 7 Sur 13 Sur 0 -- -- 76
2020-05-24 02:00:00 17.8 7 Sudoeste 11 Sudoeste 0 -- -- 75
2020-05-24 01:00:00 18.3 4 Sudoeste 9 Sudoeste 0 -- -- 73
2020-05-24 00:00:00 18.4 5 Sudoeste 9 Sudoeste 0 -- -- 76
2020-05-23 23:00:00 18.8 3 Oeste 13 Noroeste 0 -- -- 77
2020-05-23 22:00:00 19.5 8 Oeste 11 Sudoeste 0 -- -- 75
2020-05-23 21:00:00 21.3 4 Sudoeste 11 Sudoeste 0 -- -- 66
2020-05-23 20:00:00 23.1 5 Este 20 Oeste 0 -- -- 59
2020-05-23 19:00:00 24.7 12 Oeste 22 Sudoeste 0 -- -- 55
2020-05-23 18:00:00 25.5 14 Oeste 28 Sudoeste 0 -- -- 55
2020-05-23 17:00:00 26.7 18 Sudoeste 29 Sudoeste 0 -- -- 49
2020-05-23 16:00:00 27.7 18 Sudoeste 32 Sudoeste 0 -- -- 43
2020-05-23 15:00:00 27.5 10 Sudoeste 22 Oeste 0 -- -- 43
2020-05-23 14:00:00 27.2 10 Sudoeste 22 Sur 0 -- -- 44
2020-05-23 13:00:00 26.2 7 Sudoeste 17 Sudoeste 0 -- -- 45
2020-05-23 12:00:00 25.2 8 Sudoeste 18 Sudoeste 0 -- -- 47
2020-05-23 11:00:00 23.9 6 Sudoeste 10 Sudoeste 0 -- -- 49
2020-05-23 10:00:00 21.6 5 Sudoeste 9 Sudoeste 0 -- -- 62
2020-05-23 09:00:00 18.2 5 Este 14 Este 0 -- -- 68
2020-05-23 08:00:00 15.4 8 Este 14 Este 0 -- -- 77
2020-05-23 07:00:00 14.1 9 Este 13 Este 0 -- -- 80
2020-05-23 06:00:00 14.6 8 Nordeste 13 Nordeste 0 -- -- 77
2020-05-23 05:00:00 15.1 8 Este 13 Nordeste 0 -- -- 76
2020-05-23 04:00:00 15.8 8 Este 13 Este 0 -- -- 73
2020-05-23 03:00:00 16.2 6 Nordeste 16 Nordeste 0 -- -- 72
2020-05-23 02:00:00 16.5 8 Este 11 Nordeste 0 -- -- 71
2020-05-23 01:00:00 17.3 6 Nordeste 11 Nordeste 0 -- -- 68
2020-05-23 00:00:00 18.4 5 Este 10 Este 0 -- -- 62
2020-05-22 23:00:00 19.9 6 Este 9 Este 0 -- -- 55
2020-05-22 22:00:00 22 2 Noroeste 8 Sudoeste 0 -- -- 49
2020-05-22 21:00:00 23.2 6 Sudoeste 13 Sudoeste 0 -- -- 48
2020-05-22 20:00:00 25 9 Oeste 22 Sudoeste 0 -- -- 47
2020-05-22 19:00:00 26.9 13 Sudoeste 24 Sudoeste 0 -- -- 44
2020-05-22 18:00:00 28.2 14 Oeste 27 Sudoeste 0 -- -- 46
2020-05-22 17:00:00 28.7 12 Sudoeste 23 Sudoeste 0 -- -- 45
2020-05-22 16:00:00 26.7 9 Oeste 20 Oeste 0 -- -- 48
2020-05-22 15:00:00 29.3 11 Sudoeste 21 Sudoeste 0 -- -- 43
2020-05-22 14:00:00 28.4 8 Sudoeste 18 Sudoeste 0 -- -- 44
2020-05-22 13:00:00 27.4 9 Sudoeste 15 Sudoeste 0 -- -- 50
2020-05-22 12:00:00 26.7 5 Sudoeste 14 Sudoeste 0 -- -- 45
2020-05-22 11:00:00 25.3 7 Sudoeste 11 Oeste 0 -- -- 50
2020-05-22 10:00:00 22.7 4 Este 11 Este 0 -- -- 56
2020-05-22 09:00:00 18.8 7 Nordeste 14 Este 0 -- -- 67
2020-05-22 08:00:00 16.8 8 Este 17 Nordeste 0 -- -- 71
2020-05-22 07:00:00 15.8 9 Este 16 Este 0 -- -- 73
2020-05-22 06:00:00 15.6 8 Este 17 Este 0 -- -- 74
2020-05-22 05:00:00 15.8 8 Nordeste 15 Este 0 -- -- 73
2020-05-22 04:00:00 16.2 5 Este 15 Este 0 -- -- 72
2020-05-22 03:00:00 17.1 8 Este 14 Este 0 -- -- 69
2020-05-22 02:00:00 17.3 8 Este 18 Este 0 -- -- 70
2020-05-22 01:00:00 18.7 8 Nordeste 17 Este 0 -- -- 64
2020-05-22 00:00:00 20.1 9 Nordeste 17 Este 0 -- -- 60
2020-05-21 23:00:00 21.1 6 Este 13 Este 0 -- -- 58
2020-05-21 22:00:00 22.4 6 Nordeste 13 Nordeste 0 -- -- 54
2020-05-21 21:00:00 24.4 4 Este 11 Sudoeste 0 -- -- 47
2020-05-21 20:00:00 25.5 8 Sudoeste 21 Oeste 0 -- -- 42
2020-05-21 19:00:00 26.6 12 Oeste 26 Oeste 0 -- -- 42
2020-05-21 18:00:00 27.6 13 Oeste 20 Oeste 0 -- -- 39
2020-05-21 17:00:00 27 15 Oeste 23 Oeste 0 -- -- 42
2020-05-21 16:00:00 28.2 11 Sudoeste 25 Sudoeste 0 -- -- 36
2020-05-21 15:00:00 28 9 Sudoeste 21 Sudoeste 0 -- -- 39
2020-05-21 14:00:00 26.8 7 Sur 17 Sudoeste 0 -- -- 40
2020-05-21 13:00:00 26.3 10 Sudoeste 17 Sudoeste 0 -- -- 48
2020-05-21 12:00:00 25.3 8 Sudoeste 13 Sudoeste 0 -- -- 49
2020-05-21 11:00:00 23.9 7 Sudoeste 12 Sudoeste 0 -- -- 51
2020-05-21 10:00:00 21.4 2 Sudeste 8 Nordeste 0 -- -- 55
2020-05-21 09:00:00 17.6 4 Este 13 Nordeste 0 -- -- 65
2020-05-21 08:00:00 15.8 9 Nordeste 16 Nordeste 0 -- -- 69
2020-05-21 07:00:00 14 8 Este 18 Este 0 -- -- 76
2020-05-21 06:00:00 14.3 8 Este 17 Este 0 -- -- 77
2020-05-21 05:00:00 14.5 7 Este 18 Nordeste 0 -- -- 77
2020-05-21 04:00:00 15 8 Este 15 Este 0 -- -- 76
2020-05-21 03:00:00 15.4 8 Este 14 Nordeste 0 -- -- 75
2020-05-21 02:00:00 15.8 8 Este 13 Este 0 -- -- 74
2020-05-21 01:00:00 16.5 6 Este 10 Este 0 -- -- 72
2020-05-21 00:00:00 17.3 6 Este 9 Este 0 -- -- 70
2020-05-20 23:00:00 18.5 6 Este 10 Oeste 0 -- -- 65
2020-05-20 22:00:00 20.1 6 Sudoeste 13 Oeste 0 -- -- 58
2020-05-20 21:00:00 21.7 6 Sudoeste 12 Sudoeste 0 -- -- 56
2020-05-20 20:00:00 23.7 10 Oeste 22 Sudoeste 0 -- -- 51
2020-05-20 19:00:00 25.8 12 Sudoeste 19 Sudoeste 0 -- -- 45
2020-05-20 18:00:00 27 11 Oeste 17 Oeste 0 -- -- 36
2020-05-20 17:00:00 27.2 10 Sudoeste 20 Sudoeste 0 -- -- 35
2020-05-20 16:00:00 27.3 7 Sudoeste 22 Oeste 0 -- -- 38
2020-05-20 15:00:00 26.6 7 Sudoeste 22 Sudoeste 0 -- -- 39
2020-05-20 14:00:00 25.7 10 Oeste 23 Sudoeste 0 -- -- 42
2020-05-20 13:00:00 25.1 12 Sudoeste 19 Sudoeste 0 -- -- 40
2020-05-20 12:00:00 24.1 8 Sudoeste 15 Sudoeste 0 -- -- 44
2020-05-20 11:00:00 22.9 8 Sudoeste 10 Sudoeste 0 -- -- 44
2020-05-20 10:00:00 20.2 4 Sudoeste 10 Nordeste 0 -- -- 52
2020-05-20 09:00:00 15.8 4 Este 13 Este 0 -- -- 56
2020-05-20 08:00:00 13.3 7 Este 14 Este 0 -- -- 61
2020-05-20 07:00:00 12.1 8 Este 13 Este 0 -- -- 64
2020-05-20 06:00:00 13.5 6 Este 13 Este 0 -- -- 56
2020-05-20 05:00:00 14.7 2 Este 12 Este 0 -- -- 54
2020-05-20 04:00:00 15.7 0 Calma 25 Nordeste 0 -- -- 53
2020-05-20 03:00:00 18.3 11 Este 30 Nordeste 0 -- -- 46
2020-05-20 02:00:00 18.2 13 Este 29 Nordeste 0 -- -- 45
2020-05-20 01:00:00 19.1 14 Este 32 Nordeste 0 -- -- 43
2020-05-20 00:00:00 17.4 14 Nordeste 25 Nordeste 0 -- -- 49
2020-05-19 23:00:00 18.2 4 Nordeste 8 Sur 0 -- -- 59
2020-05-19 22:00:00 20 3 Oeste 9 Este 0 -- -- 54
2020-05-19 21:00:00 21.5 2 Norte 10 Sur 0 -- -- 60
2020-05-19 20:00:00 23.1 8 Sudoeste 19 Sudoeste 0 -- -- 58
2020-05-19 19:00:00 24.1 12 Sudoeste 25 Sudoeste 0 -- -- 56
2020-05-19 18:00:00 24.4 15 Sudoeste 30 Oeste 0 -- -- 55
2020-05-19 17:00:00 25.1 17 Sudoeste 31 Sudoeste 0 -- -- 52
2020-05-19 16:00:00 25.7 15 Oeste 30 Sudoeste 0 -- -- 48
2020-05-19 15:00:00 25.6 14 Sudoeste 24 Sudoeste 0 -- -- 47
2020-05-19 14:00:00 24.5 14 Sudoeste 23 Sudoeste 0 -- -- 49
2020-05-19 13:00:00 23 9 Sudoeste 18 Sudoeste 0 -- -- 55
2020-05-19 12:00:00 21.5 9 Sudoeste 17 Sudoeste 0 -- -- 54
2020-05-19 11:00:00 19.6 9 Sudoeste 15 Sudoeste 0 -- -- 52
2020-05-19 10:00:00 17.2 6 Sudoeste 10 Sudoeste 0 -- -- 52
2020-05-19 09:00:00 13.7 6 Sudoeste 18 Oeste 0 -- -- 63
2020-05-19 08:00:00 13.1 4 Sudoeste 8 Oeste 0 -- -- 60
2020-05-19 07:00:00 12.9 4 Este 12 Este 0 -- -- 57
2020-05-19 06:00:00 14.2 4 Este 15 Nordeste 0 -- -- 49
2020-05-19 05:00:00 16 3 Norte 28 Nordeste 0 -- -- 40
2020-05-19 04:00:00 16.7 16 Nordeste 31 Nordeste 0 -- -- 39
2020-05-19 03:00:00 16 14 Nordeste 22 Nordeste 0 -- -- 41
2020-05-19 02:00:00 16.6 11 Nordeste 21 Este 0 -- -- 40
2020-05-19 01:00:00 16.6 10 Nordeste 21 Nordeste 0 -- -- 40
2020-05-19 00:00:00 16.3 10 Nordeste 15 Nordeste 0 -- -- 45
2020-05-18 23:00:00 17 7 Nordeste 17 Nordeste 0 -- -- 52
2020-05-18 22:00:00 17.5 4 Este 9 Nordeste 0 -- -- 66
2020-05-18 21:00:00 19.3 3 Norte 8 Norte 0 -- -- 58
2020-05-18 20:00:00 20.6 7 Sudoeste 14 Oeste 0 -- -- 57
2020-05-18 19:00:00 22.5 9 Sudoeste 24 Sudoeste 0 -- -- 51
2020-05-18 18:00:00 24.1 11 Sudoeste 23 Sudoeste 0 -- -- 40
2020-05-18 17:00:00 24.3 11 Sudoeste 20 Sudoeste 0 -- -- 42
2020-05-18 16:00:00 24.5 9 Oeste 20 Sudoeste 0 -- -- 41
2020-05-18 15:00:00 23.7 10 Oeste 22 Oeste 0 -- -- 42
2020-05-18 14:00:00 22.6 9 Sudoeste 20 Oeste 0 -- -- 40
2020-05-18 13:00:00 21.4 9 Sur 22 Oeste 0 -- -- 45
2020-05-18 12:00:00 20.8 15 Sudoeste 23 Sudoeste 0 -- -- 44
2020-05-18 11:00:00 19.6 8 Sudoeste 15 Oeste 0 -- -- 53
2020-05-18 10:00:00 17.9 8 Sudoeste 12 Sur 0 -- -- 50
2020-05-18 09:00:00 13.2 7 Este 12 Este 0 -- -- 61
2020-05-18 08:00:00 10.8 0 Calma 12 Este 0 -- -- 60
2020-05-18 07:00:00 10.9 5 Nordeste 14 Nordeste 0 -- -- 54
2020-05-18 06:00:00 11.9 8 Este 21 Nordeste 0 -- -- 48
2020-05-18 05:00:00 13 6 Nordeste 23 Nordeste 0 -- -- 45
2020-05-18 04:00:00 13 14 Nordeste 28 Nordeste 0 -- -- 44
2020-05-18 03:00:00 13.1 13 Nordeste 23 Nordeste 0 -- -- 44
2020-05-18 02:00:00 11.2 11 Este 16 Nordeste 0 -- -- 64
2020-05-18 01:00:00 12.2 7 Este 13 Este 0 -- -- 66
2020-05-18 00:00:00 13.4 6 Este 10 Este 0 -- -- 71
2020-05-17 23:00:00 15 5 Este 12 Este 0 -- -- 71
2020-05-17 22:00:00 15.7 4 Este 7 Este 0 -- -- 77
2020-05-17 21:00:00 17.6 3 Este 9 Sur 0 -- -- 70
2020-05-17 20:00:00 19.1 4 Sudoeste 13 Sudoeste 0 -- -- 65
2020-05-17 19:00:00 19.5 8 Sudoeste 19 Sudoeste 0 -- -- 65
2020-05-17 18:00:00 20.7 13 Sudoeste 22 Sudoeste 0 -- -- 59
2020-05-17 17:00:00 20.6 9 Sudoeste 23 Sudoeste 0 -- -- 57
2020-05-17 16:00:00 20.5 12 Sudoeste 28 Sudoeste 0 -- -- 59
2020-05-17 15:00:00 20.4 16 Sudoeste 30 Sudoeste 0 -- -- 63
2020-05-17 14:00:00 20 17 Sudoeste 28 Sudoeste 0 -- -- 60
2020-05-17 13:00:00 18.9 8 Oeste 19 Sudoeste 0 -- -- 67
2020-05-17 12:00:00 16.7 11 Sudoeste 17 Sudoeste 0 -- -- 78
2020-05-17 11:00:00 14 7 Sudoeste 13 Sudoeste 0 -- -- 85
2020-05-17 10:00:00 11 5 Oeste 10 Oeste 0 -- -- 95
2020-05-17 09:00:00 9.9 4 Noroeste 9 Sudoeste 0 -- -- 97
2020-05-17 08:00:00 8.6 3 Nordeste 9 Este 0 -- -- 96
2020-05-17 07:00:00 8 0 Calma 6 Nordeste 0 -- -- 96
2020-05-17 06:00:00 8 4 Este 10 Este 0 -- -- 96
2020-05-17 05:00:00 8.4 4 Este 8 Este 0 -- -- 96
2020-05-17 04:00:00 8.7 5 Este 8 Este 0 -- -- 96
2020-05-17 03:00:00 9.2 4 Este 8 Este 0 -- -- 95
2020-05-17 02:00:00 10.1 3 Oeste 8 Este 0 -- -- 96
2020-05-17 01:00:00 10.7 4 Este 8 Este 0 -- -- 95
2020-05-17 00:00:00 11.1 3 Este 9 Este 0 -- -- 95
2020-05-16 23:00:00 11.9 3 Sudoeste 6 Este 0 -- -- 94
2020-05-16 22:00:00 12.6 2 Sudoeste 5 Este 0.2 -- -- 92
2020-05-16 21:00:00 12.8 0 Calma 6 Nordeste 0.2 -- -- 89
2020-05-16 20:00:00 13.1 0 Calma 6 Sudoeste 0 -- -- 89
2020-05-16 19:00:00 13.3 4 Sudoeste 10 Sudoeste 0 -- -- 88
2020-05-16 18:00:00 13.1 6 Sudoeste 9 Sudoeste 0.2 -- -- 91
2020-05-16 17:00:00 13.1 4 Sudoeste 6 Este 1.6 -- -- 90
2020-05-16 16:00:00 13.7 3 Sudeste 9 Sur 0.6 -- -- 83
2020-05-16 15:00:00 15.5 4 Este 13 Norte 0.2 -- -- 76
2020-05-16 14:00:00 16.8 8 Noroeste 18 Noroeste 0.4 -- -- 69
2020-05-16 13:00:00 17.7 5 Sur 21 Oeste 0 -- -- 59
2020-05-16 12:00:00 18.2 9 Oeste 16 Oeste 0 -- -- 63
2020-05-16 11:00:00 18.1 5 Sudoeste 13 Sudoeste 0 -- -- 66
2020-05-16 10:00:00 14.5 4 Este 8 Este 0 -- -- 77
2020-05-16 09:00:00 12.1 4 Este 12 Este 0 -- -- 86
2020-05-16 08:00:00 10.5 5 Este 11 Este 0 -- -- 90
2020-05-16 07:00:00 10.3 7 Este 12 Este 0 -- -- 88
2020-05-16 06:00:00 10.4 6 Este 17 Este 0 -- -- 87
2020-05-16 05:00:00 10.4 5 Este 18 Este 0 -- -- 88
2020-05-16 04:00:00 10.9 7 Este 21 Este 0 -- -- 85
2020-05-16 03:00:00 10.8 10 Este 18 Este 0 -- -- 87
2020-05-16 02:00:00 10.9 9 Nordeste 27 Nordeste 0 -- -- 88
2020-05-16 01:00:00 11.7 17 Nordeste 31 Este 0 -- -- 83
2020-05-16 00:00:00 11 14 Nordeste 32 Nordeste 0 -- -- 88
2020-05-15 23:00:00 11.4 12 Nordeste 30 Nordeste 2.4 -- -- 83
2020-05-15 22:00:00 12.8 8 Este 14 Este 6.8 -- -- 88
2020-05-15 21:00:00 15.1 3 Este 10 Nordeste 0 -- -- 78
2020-05-15 20:00:00 15.7 4 Nordeste 15 Nordeste 0 -- -- 74
2020-05-15 19:00:00 17.2 5 Sudoeste 14 Oeste 0 -- -- 71
2020-05-15 18:00:00 16.5 6 Sudoeste 16 Sudoeste 0 -- -- 74
2020-05-15 17:00:00 16.8 6 Sudoeste 17 Sudoeste 0 -- -- 70
2020-05-15 16:00:00 17.1 5 Sudoeste 16 Oeste 0 -- -- 66
2020-05-15 15:00:00 17.3 13 Sudoeste 22 Oeste 0 -- -- 69
2020-05-15 14:00:00 17.8 9 Sudoeste 22 Sudoeste 0 -- -- 67
2020-05-15 13:00:00 17.6 7 Sudoeste 20 Sudoeste 0 -- -- 69
2020-05-15 12:00:00 15.8 6 Sur 13 Oeste 0 -- -- 79
2020-05-15 11:00:00 13.1 3 Este 9 Sudoeste 0 -- -- 83
2020-05-15 10:00:00 12.5 5 Sudoeste 8 Sudoeste 0 -- -- 88
2020-05-15 09:00:00 11.1 3 Este 11 Este 0 -- -- 91
2020-05-15 08:00:00 10.2 4 Nordeste 8 Este 0.2 -- -- 94
2020-05-15 07:00:00 9.8 2 Nordeste 6 Este 0 -- -- 94
2020-05-15 06:00:00 9.7 3 Este 8 Nordeste 0 -- -- 95
2020-05-15 05:00:00 9.4 3 Este 8 Este 0 -- -- 96
2020-05-15 04:00:00 9.4 2 Nordeste 5 Nordeste 0 -- -- 96
2020-05-15 03:00:00 9.5 3 Nordeste 9 Este 0 -- -- 96
2020-05-15 02:00:00 9.7 3 Este 6 Este 0 -- -- 95
2020-05-15 01:00:00 9.9 2 Sur 7 Este 0 -- -- 95
2020-05-15 00:00:00 9.9 4 Este 8 Este 0 -- -- 95
2020-05-14 23:00:00 10.3 4 Este 6 Este 0 -- -- 93
2020-05-14 22:00:00 10.9 0 Calma 5 Este 0 -- -- 93
2020-05-14 21:00:00 11.2 2 Este 5 Este 0.2 -- -- 92
2020-05-14 20:00:00 11.6 3 Este 6 Este 0.2 -- -- 93
2020-05-14 19:00:00 11.9 3 Este 6 Sudoeste 1.2 -- -- 89
2020-05-14 18:00:00 12 5 Sudoeste 9 Oeste 2.4 -- -- 92
2020-05-14 17:00:00 11.9 2 Este 14 Nordeste 5.8 -- -- 91
2020-05-14 16:00:00 12.4 5 Nordeste 14 Este 3.6 -- -- 88
2020-05-14 15:00:00 13.3 9 Nordeste 17 Nordeste 1.8 -- -- 82
2020-05-14 14:00:00 15.2 4 Este 13 Este 0.6 -- -- 78
2020-05-14 13:00:00 16.7 5 Sudeste 14 Sur 0 -- -- 68
2020-05-14 12:00:00 16.7 7 Sudoeste 15 Oeste 0 -- -- 71
2020-05-14 11:00:00 17.7 5 Este 13 Este 0 -- -- 64
2020-05-14 10:00:00 13.8 0 Calma 6 Sur 0 -- -- 82
2020-05-14 09:00:00 13.1 3 Sur 7 Sur 0 -- -- 84
2020-05-14 08:00:00 13 3 Nordeste 10 Nordeste 0 -- -- 82
2020-05-14 07:00:00 12.7 5 Nordeste 14 Este 0 -- -- 82
2020-05-14 06:00:00 12.3 5 Este 15 Este 0 -- -- 83
2020-05-14 05:00:00 12.6 5 Nordeste 12 Este 0 -- -- 83
2020-05-14 04:00:00 12.3 5 Este 11 Nordeste 0 -- -- 83
2020-05-14 03:00:00 12.6 4 Nordeste 9 Este 0 -- -- 81
2020-05-14 02:00:00 12.6 2 Nordeste 9 Nordeste 0 -- -- 82
2020-05-14 01:00:00 13.4 3 Este 7 Este 0 -- -- 79
2020-05-14 00:00:00 14.1 4 Este 6 Este 0 -- -- 75
2020-05-13 23:00:00 14.4 3 Este 6 Este 0 -- -- 72
2020-05-13 22:00:00 14.6 5 Este 10 Norte 0 -- -- 72
2020-05-13 21:00:00 16.1 4 Este 17 Oeste 0 -- -- 65
2020-05-13 20:00:00 17.9 12 Sudoeste 32 Sudoeste 0 -- -- 61
2020-05-13 19:00:00 18.5 24 Sudoeste 35 Sudoeste 0 -- -- 58
2020-05-13 18:00:00 19.1 23 Sudoeste 41 Sudoeste 0 -- -- 57
2020-05-13 17:00:00 19.6 26 Sudoeste 39 Sudoeste 0 -- -- 56
2020-05-13 16:00:00 20 20 Oeste 30 Oeste 0 -- -- 56
2020-05-13 15:00:00 19.4 22 Oeste 42 Oeste 0 -- -- 55
2020-05-13 14:00:00 19.3 25 Oeste 41 Oeste 0 -- -- 58
2020-05-13 13:00:00 18.3 24 Oeste 42 Oeste 0 -- -- 64
2020-05-13 12:00:00 18.2 6 Sur 17 Sudoeste 0 -- -- 67
2020-05-13 11:00:00 17.1 8 Sudoeste 15 Sudoeste 0 -- -- 75
2020-05-13 10:00:00 14 5 Nordeste 16 Nordeste 0 -- -- 84
2020-05-13 09:00:00 11.4 6 Este 17 Este 0.6 -- -- 93
2020-05-13 08:00:00 11.5 0 Calma 10 Este 0 -- -- 91
2020-05-13 07:00:00 12 2 Nordeste 13 Sudeste 0.6 -- -- 85
2020-05-13 06:00:00 12.5 3 Sudoeste 25 Este 0 -- -- 82
2020-05-13 05:00:00 12.8 12 Este 22 Este 0 -- -- 79
2020-05-13 04:00:00 13 11 Nordeste 23 Nordeste 0.2 -- -- 77
2020-05-13 03:00:00 13.5 16 Nordeste 30 Nordeste 0 -- -- 78
2020-05-13 02:00:00 13.5 15 Nordeste 30 Este 0.2 -- -- 83
2020-05-13 01:00:00 13.4 13 Nordeste 21 Este 1 -- -- 89
2020-05-13 00:00:00 14.3 4 Este 13 Este 0 -- -- 82
2020-05-12 23:00:00 14.5 3 Este 10 Nordeste 0 -- -- 82
2020-05-12 22:00:00 14.8 3 Este 11 Nordeste 0 -- -- 80
2020-05-12 21:00:00 15.3 5 Nordeste 12 Sudoeste 0 -- -- 78
2020-05-12 20:00:00 15.7 5 Oeste 19 Sudoeste 0 -- -- 79
2020-05-12 19:00:00 16.5 9 Oeste 18 Sudoeste 0 -- -- 77
2020-05-12 18:00:00 18.2 13 Sudoeste 19 Sudoeste 0 -- -- 71
2020-05-12 17:00:00 18.3 9 Sudoeste 20 Oeste 0 -- -- 66
2020-05-12 16:00:00 18.2 7 Sudoeste 30 Sudoeste 0 -- -- 67
2020-05-12 15:00:00 19.2 11 Sudoeste 20 Sudoeste 0 -- -- 64
2020-05-12 14:00:00 18.4 4 Este 23 Sudoeste 0 -- -- 63
2020-05-12 13:00:00 18.2 9 Sudoeste 23 Sudoeste 0 -- -- 63
2020-05-12 12:00:00 17.5 7 Sudoeste 18 Oeste 0 -- -- 70
2020-05-12 11:00:00 15.1 6 Sudoeste 13 Sudoeste 0 -- -- 76
2020-05-12 10:00:00 13.8 3 Sur 13 Sudoeste 0 -- -- 76
2020-05-12 09:00:00 11.6 4 Oeste 10 Este 0 -- -- 83
2020-05-12 08:00:00 9.9 6 Este 17 Nordeste 0 -- -- 85
2020-05-12 07:00:00 8.6 6 Nordeste 10 Nordeste 0 -- -- 90
2020-05-12 06:00:00 8.6 6 Este 12 Este 0 -- -- 89
2020-05-12 05:00:00 9.4 6 Nordeste 19 Este 0 -- -- 85
2020-05-12 04:00:00 9.5 7 Este 10 Este 0 -- -- 87
2020-05-12 03:00:00 10.8 7 Nordeste 20 Nordeste 0 -- -- 82
2020-05-12 02:00:00 10.6 5 Nordeste 12 Este 0 -- -- 84
2020-05-12 01:00:00 11.5 6 Este 10 Nordeste 0 -- -- 81
2020-05-12 00:00:00 12.7 2 Norte 8 Este 0 -- -- 71
2020-05-11 23:00:00 14.3 6 Sudeste 26 Oeste 0 -- -- 63
2020-05-11 22:00:00 14.2 7 Oeste 11 Oeste 0 -- -- 65
2020-05-11 21:00:00 15.1 2 Oeste 21 Sudoeste 0 -- -- 63
2020-05-11 20:00:00 16.3 7 Sudoeste 28 Oeste 0 -- -- 58
2020-05-11 19:00:00 17.1 17 Oeste 31 Sudoeste 0 -- -- 58
2020-05-11 18:00:00 18.2 20 Oeste 36 Sudoeste 0 -- -- 56
2020-05-11 17:00:00 17.6 10 Oeste 30 Oeste 0 -- -- 60
2020-05-11 16:00:00 16.3 15 Oeste 47 Sudoeste 0 -- -- 62
2020-05-11 15:00:00 15.4 23 Oeste 41 Oeste 0 -- -- 64
2020-05-11 14:00:00 15.3 24 Oeste 42 Oeste 0 -- -- 64
2020-05-11 13:00:00 14.7 19 Oeste 37 Oeste 0 -- -- 68
2020-05-11 12:00:00 14.2 15 Sudoeste 37 Oeste 0 -- -- 76
2020-05-11 11:00:00 13.8 22 Oeste 34 Sudoeste 0 -- -- 78
2020-05-11 10:00:00 12.5 4 Este 10 Este 0 -- -- 94
2020-05-11 09:00:00 11.5 4 Nordeste 8 Este 0 -- -- 95
2020-05-11 08:00:00 10.4 3 Este 6 Este 0 -- -- 96
2020-05-11 07:00:00 10 2 Sudoeste 7 Nordeste 0 -- -- 95
2020-05-11 06:00:00 9.9 2 Este 9 Nordeste 0 -- -- 96
2020-05-11 05:00:00 10.1 3 Este 5 Este 0 -- -- 96
2020-05-11 04:00:00 10.2 0 Calma 6 Nordeste 0 -- -- 96
2020-05-11 03:00:00 10.3 3 Este 6 Oeste 0 -- -- 96
2020-05-11 02:00:00 10.3 3 Sudoeste 8 Sudoeste 0 -- -- 96
2020-05-11 01:00:00 10.4 5 Este 9 Este 0.2 -- -- 95
2020-05-11 00:00:00 10.7 0 Calma 5 Este 0 -- -- 95
2020-05-10 23:00:00 10.8 2 Oeste 10 Nordeste 0 -- -- 95
2020-05-10 22:00:00 11.2 4 Este 9 Sudoeste 0 -- -- 94
2020-05-10 21:00:00 11.7 3 Sudeste 12 Oeste 0.4 -- -- 93
2020-05-10 20:00:00 12.2 9 Sudoeste 21 Sudoeste 2 -- -- 92
2020-05-10 19:00:00 13.4 5 Sudoeste 10 Sudoeste 0 -- -- 89
2020-05-10 18:00:00 12.8 4 Este 17 Este 0.6 -- -- 88
2020-05-10 17:00:00 12.7 11 Este 17 Este 0 -- -- 90
2020-05-10 16:00:00 12 6 Nordeste 39 Sudoeste 4.6 -- -- 89
2020-05-10 15:00:00 13.8 9 Sudoeste 27 Sudoeste 0.4 -- -- 94
2020-05-10 14:00:00 13.7 16 Oeste 31 Oeste 1.6 -- -- 95
2020-05-10 13:00:00 13.5 10 Oeste 30 Sudoeste 3.2 -- -- 95
2020-05-10 12:00:00 14.1 7 Oeste 15 Oeste 6.8 -- -- 95
2020-05-10 11:00:00 13.8 4 Sudoeste 11 Nordeste 14.8 -- -- 94
2020-05-10 10:00:00 13.6 4 Nordeste 10 Este 3.4 -- -- 94
2020-05-10 09:00:00 13.6 3 Sudeste 10 Este 5.8 -- -- 92
2020-05-10 08:00:00 13.7 4 Nordeste 11 Sudeste 0.2 -- -- 89
2020-05-10 07:00:00 13.8 4 Este 10 Este 0 -- -- 85
2020-05-10 06:00:00 14 3 Oeste 13 Este 0 -- -- 85
2020-05-10 05:00:00 14.4 6 Nordeste 11 Nordeste 0 -- -- 86
2020-05-10 04:00:00 15.2 2 Este 5 Sudoeste 0 -- -- 83
2020-05-10 03:00:00 15.6 3 Sur 6 Nordeste 0 -- -- 81
2020-05-10 02:00:00 15.8 0 Calma 7 Este 0 -- -- 79
2020-05-10 01:00:00 15.8 3 Nordeste 7 Nordeste 0 -- -- 80
2020-05-10 00:00:00 15.9 3 Este 6 Sudoeste 0 -- -- 82
2020-05-09 23:00:00 16.1 2 Oeste 8 Sudoeste 0 -- -- 83
2020-05-09 22:00:00 16.4 2 Sudoeste 11 Sudoeste 0 -- -- 80
2020-05-09 21:00:00 16.8 7 Sudoeste 12 Sudoeste 0 -- -- 78
2020-05-09 20:00:00 17.8 8 Sudoeste 12 Sudoeste 0 -- -- 73
2020-05-09 19:00:00 18.9 5 Oeste 15 Sudoeste 0 -- -- 69
2020-05-09 18:00:00 20 11 Sudoeste 24 Sudoeste 0 -- -- 61
2020-05-09 17:00:00 21.3 14 Oeste 23 Sudoeste 0 -- -- 56
2020-05-09 16:00:00 20.1 5 Sudeste 14 Sudoeste 0 -- -- 60
2020-05-09 15:00:00 18 6 Sudoeste 15 Oeste 0 -- -- 70
2020-05-09 14:00:00 17.7 6 Norte 20 Oeste 0 -- -- 66
2020-05-09 13:00:00 17.4 8 Oeste 17 Oeste 0 -- -- 66
2020-05-09 12:00:00 15.6 8 Sudoeste 18 Sudoeste 0 -- -- 68
2020-05-09 11:00:00 16 8 Oeste 13 Sudoeste 0 -- -- 65
2020-05-09 10:00:00 14.2 4 Sudoeste 13 Sudoeste 0 -- -- 72
2020-05-09 09:00:00 12.9 2 Nordeste 11 Este 0 -- -- 70
2020-05-09 08:00:00 11.4 9 Oeste 23 Sudeste 0 -- -- 77
2020-05-09 07:00:00 14.2 14 Este 23 Nordeste 0 -- -- 53
2020-05-09 06:00:00 13 13 Este 29 Este 0 -- -- 61
2020-05-09 05:00:00 11.6 9 Este 14 Este 0 -- -- 71
2020-05-09 04:00:00 12.2 8 Este 16 Este 0 -- -- 70
2020-05-09 03:00:00 13.1 7 Nordeste 14 Este 0 -- -- 68
2020-05-09 02:00:00 12.9 7 Este 14 Nordeste 0 -- -- 71
2020-05-09 01:00:00 13.6 8 Este 13 Este 0 -- -- 68
2020-05-09 00:00:00 14.2 5 Este 11 Este 0 -- -- 66
2020-05-08 23:00:00 15.4 5 Este 8 Sudoeste 0 -- -- 61
2020-05-08 22:00:00 16.7 5 Oeste 10 Oeste 0 -- -- 54
2020-05-08 21:00:00 18.3 6 Sudoeste 10 Sudoeste 0 -- -- 55
2020-05-08 20:00:00 20.5 8 Sudoeste 16 Sur 0 -- -- 47
2020-05-08 19:00:00 21.7 15 Sudoeste 31 Sudoeste 0 -- -- 45
2020-05-08 18:00:00 23.3 15 Sudoeste 25 Sudoeste 0 -- -- 42
2020-05-08 17:00:00 23.7 17 Oeste 26 Oeste 0 -- -- 35
2020-05-08 16:00:00 23.2 9 Sudoeste 25 Sudoeste 0 -- -- 37
2020-05-08 15:00:00 23.4 14 Sudoeste 27 Sudoeste 0 -- -- 35
2020-05-08 14:00:00 22.7 12 Sudoeste 24 Sudoeste 0 -- -- 37
2020-05-08 13:00:00 21.2 11 Sudoeste 18 Oeste 0 -- -- 42
2020-05-08 12:00:00 20.5 12 Sudoeste 18 Sudoeste 0 -- -- 48
2020-05-08 11:00:00 20.4 9 Oeste 15 Sudoeste 0 -- -- 53
2020-05-08 10:00:00 19 3 Noroeste 9 Nordeste 0 -- -- 54
2020-05-08 09:00:00 15.1 4 Este 6 Este 0 -- -- 75
2020-05-08 08:00:00 14.3 3 Este 21 Nordeste 0 -- -- 73
2020-05-08 07:00:00 14 8 Nordeste 21 Este 0 -- -- 75
2020-05-08 06:00:00 13.3 8 Este 13 Este 0 -- -- 83
2020-05-08 05:00:00 13.8 6 Este 13 Este 0 -- -- 81
2020-05-08 04:00:00 14.4 7 Este 14 Este 0 -- -- 80
2020-05-08 03:00:00 14.5 5 Este 18 Este 0 -- -- 80
2020-05-08 02:00:00 14.8 11 Este 19 Este 0 -- -- 78
2020-05-08 01:00:00 14.8 7 Este 14 Este 0 -- -- 79
2020-05-08 00:00:00 15.5 5 Este 7 Este 0 -- -- 77
2020-05-07 23:00:00 16.6 3 Sudoeste 9 Nordeste 0 -- -- 71
2020-05-07 22:00:00 17.6 4 Sudoeste 6 Sudoeste 0 -- -- 68
2020-05-07 21:00:00 19.1 2 Sudoeste 9 Sudoeste 0 -- -- 63
2020-05-07 20:00:00 20.4 6 Sudoeste 18 Sudoeste 0 -- -- 58
2020-05-07 19:00:00 21.6 9 Sudoeste 17 Sudoeste 0 -- -- 56
2020-05-07 18:00:00 22.8 9 Oeste 21 Sudoeste 0 -- -- 53
2020-05-07 17:00:00 22.7 13 Oeste 20 Sur 0 -- -- 53
2020-05-07 16:00:00 24.6 11 Sudoeste 26 Sudoeste 0 -- -- 49
2020-05-07 15:00:00 24.7 13 Sudoeste 26 Sudoeste 0 -- -- 47
2020-05-07 14:00:00 24.3 9 Sur 22 Sudoeste 0 -- -- 48
2020-05-07 13:00:00 23.6 9 Sudoeste 22 Sudoeste 0 -- -- 49
2020-05-07 12:00:00 22.3 8 Sur 21 Sudoeste 0 -- -- 53
2020-05-07 11:00:00 20.8 9 Sudoeste 14 Sudoeste 0 -- -- 60
2020-05-07 10:00:00 18.2 6 Sudoeste 10 Sudoeste 0 -- -- 74
2020-05-07 09:00:00 16.7 3 Nordeste 10 Este 0 -- -- 73
2020-05-07 08:00:00 14.9 6 Este 14 Nordeste 0 -- -- 77
2020-05-07 07:00:00 14.4 9 Este 16 Nordeste 0 -- -- 79
2020-05-07 06:00:00 14.4 6 Este 13 Este 0 -- -- 80
2020-05-07 05:00:00 14.6 7 Nordeste 13 Nordeste 0 -- -- 81
2020-05-07 04:00:00 14.1 6 Este 11 Este 0 -- -- 83
2020-05-07 03:00:00 14.8 5 Este 14 Nordeste 0 -- -- 79
2020-05-07 02:00:00 15.3 5 Este 9 Este 0 -- -- 78
2020-05-07 01:00:00 16 5 Este 8 Este 0 -- -- 76
2020-05-07 00:00:00 17.2 2 Nordeste 6 Este 0 -- -- 71
2020-05-06 23:00:00 18.1 0 Calma 9 Sudoeste 0 -- -- 67
2020-05-06 22:00:00 19 7 Oeste 14 Oeste 0 -- -- 65
2020-05-06 21:00:00 20.8 8 Sudoeste 22 Sur 0 -- -- 59
2020-05-06 20:00:00 23.1 14 Sudoeste 31 Sudoeste 0 -- -- 45
2020-05-06 19:00:00 24.2 18 Sudoeste 34 Sudoeste 0 -- -- 45
2020-05-06 18:00:00 24.9 21 Sudoeste 35 Sur 0 -- -- 42
2020-05-06 17:00:00 25.4 21 Oeste 35 Sudoeste 0 -- -- 42
2020-05-06 16:00:00 24.9 23 Oeste 39 Oeste 0 -- -- 43
2020-05-06 15:00:00 24.5 24 Sudoeste 35 Sudoeste 0 -- -- 45
2020-05-06 14:00:00 23.8 15 Oeste 27 Sudoeste 0 -- -- 49
2020-05-06 13:00:00 22.5 10 Sudoeste 23 Oeste 0 -- -- 59
2020-05-06 12:00:00 23.3 10 Sudoeste 21 Sudoeste 0 -- -- 55
2020-05-06 11:00:00 22.8 4 Sur 9 Sudoeste 0 -- -- 50
2020-05-06 10:00:00 19.5 3 Este 10 Este 0 -- -- 62
2020-05-06 09:00:00 15.4 7 Este 15 Este 0 -- -- 68
2020-05-06 08:00:00 13.9 8 Este 18 Este 0 -- -- 70
2020-05-06 07:00:00 13.3 9 Este 18 Nordeste 0 -- -- 72
2020-05-06 06:00:00 13.6 8 Nordeste 19 Nordeste 0 -- -- 76
2020-05-06 05:00:00 13.6 8 Este 18 Nordeste 0 -- -- 78
2020-05-06 04:00:00 14.1 8 Este 19 Nordeste 0 -- -- 78
2020-05-06 03:00:00 14.4 7 Este 16 Nordeste 0 -- -- 78
2020-05-06 02:00:00 14.5 8 Este 15 Nordeste 0 -- -- 78
2020-05-06 01:00:00 15 6 Nordeste 11 Este 0 -- -- 80
2020-05-06 00:00:00 16 6 Este 12 Este 0 -- -- 77
2020-05-05 23:00:00 17.2 2 Nordeste 11 Este 0 -- -- 78
2020-05-05 22:00:00 18.4 4 Este 8 Este 0 -- -- 77
2020-05-05 21:00:00 20.1 2 Sudeste 6 Este 0 -- -- 71
2020-05-05 20:00:00 21 3 Este 10 Oeste 0 -- -- 66
2020-05-05 19:00:00 21.7 6 Sudoeste 11 Sudoeste 0 -- -- 65
2020-05-05 18:00:00 22.5 5 Sur 13 Sudoeste 0 -- -- 59
2020-05-05 17:00:00 22.8 4 Sudoeste 14 Sudoeste 0 -- -- 61
2020-05-05 16:00:00 23.3 6 Sudeste 17 Sudeste 0 -- -- 57
2020-05-05 15:00:00 23.6 6 Este 20 Sudoeste 0 -- -- 53
2020-05-05 14:00:00 24.1 7 Sur 19 Sudoeste 0 -- -- 50
2020-05-05 13:00:00 23.1 7 Sudoeste 15 Sudoeste 0 -- -- 51
2020-05-05 12:00:00 22.9 9 Sudoeste 17 Sudoeste 0 -- -- 51
2020-05-05 11:00:00 21.6 8 Sudoeste 13 Sudoeste 0 -- -- 47
2020-05-05 10:00:00 19.4 3 Este 11 Este 0 -- -- 53
2020-05-05 09:00:00 15.7 6 Este 14 Este 0 -- -- 68
2020-05-05 08:00:00 13.9 6 Nordeste 19 Nordeste 0 -- -- 74
2020-05-05 07:00:00 12.8 7 Este 14 Este 0 -- -- 78
2020-05-05 06:00:00 13.3 7 Este 12 Este 0 -- -- 77
2020-05-05 05:00:00 13.7 6 Este 12 Nordeste 0 -- -- 77
2020-05-05 04:00:00 14.2 5 Este 12 Nordeste 0 -- -- 75
2020-05-05 03:00:00 14.8 7 Este 12 Este 0 -- -- 72
2020-05-05 02:00:00 15.6 5 Este 10 Nordeste 0 -- -- 70
2020-05-05 01:00:00 16.3 6 Oeste 12 Nordeste 0 -- -- 67
2020-05-05 00:00:00 17.6 3 Sudoeste 14 Este 0 -- -- 62